Time;durP1;ratioP1;P1;durP2;ratioP2;P2;SDS_P1;SDS_P2;PMS_P1;PMS_P2;Temp;Humidity;BMP_temperature;BMP_pressure;BME280_temperature;BME280_humidity;BME280_pressure;Samples;Min_cycle;Max_cycle;Signal;HPM_P1;HPM_P2
2021/06/26 00:00:04;;;;;;;11.05;6.20;;;;;;;13.82;74.30;101646.00;5053437;28;20029;-77
2021/06/26 00:02:29;;;;;;;11.88;6.78;;;;;;;13.81;75.50;101648.81;5053288;28;20390;-77
2021/06/26 00:04:54;;;;;;;11.27;7.40;;;;;;;13.76;74.80;101645.47;5053262;28;20496;-77
2021/06/26 00:07:20;;;;;;;11.68;6.32;;;;;;;13.75;74.62;101657.25;5025618;28;20160;-78
2021/06/26 00:09:46;;;;;;;17.40;8.75;;;;;;;13.73;74.23;101653.75;5016763;28;20116;-77
2021/06/26 00:12:11;;;;;;;18.48;9.65;;;;;;;13.71;74.41;101655.66;5017870;28;20096;-77
2021/06/26 00:14:36;;;;;;;14.90;7.22;;;;;;;13.68;75.02;101652.19;5033168;28;20029;-78
2021/06/26 00:17:02;;;;;;;10.60;6.38;;;;;;;13.71;74.96;101656.53;5033610;28;20020;-78
2021/06/26 00:19:27;;;;;;;16.02;8.98;;;;;;;13.71;75.21;101648.44;5043013;28;20021;-76
2021/06/26 00:21:53;;;;;;;17.50;9.60;;;;;;;13.62;74.51;101641.75;5052558;28;20537;-76
2021/06/26 00:24:18;;;;;;;11.20;7.93;;;;;;;13.68;74.60;101651.31;5042683;28;20067;-77
2021/06/26 00:26:43;;;;;;;10.27;7.78;;;;;;;13.55;74.60;101629.53;5032587;28;20021;-76
2021/06/26 00:29:09;;;;;;;11.57;6.95;;;;;;;13.64;74.50;101642.50;5032891;28;20033;-76
2021/06/26 00:31:34;;;;;;;8.82;6.20;;;;;;;13.63;75.08;101650.72;5038673;28;20033;-76
2021/06/26 00:34:00;;;;;;;12.10;8.35;;;;;;;13.52;75.63;101639.66;5015979;28;20041;-76
2021/06/26 00:36:25;;;;;;;14.15;8.90;;;;;;;13.53;75.76;101653.06;5034995;28;20044;-77
2021/06/26 00:38:51;;;;;;;12.88;8.00;;;;;;;13.45;75.56;101660.72;5052046;28;20024;-77
2021/06/26 00:41:16;;;;;;;13.05;7.05;;;;;;;13.41;75.30;101659.13;5042479;28;20036;-77
2021/06/26 00:43:41;;;;;;;10.70;7.78;;;;;;;13.29;77.07;101640.94;5053845;28;20025;-77
2021/06/26 00:46:07;;;;;;;10.45;6.68;;;;;;;13.29;77.15;101655.28;5044402;28;20052;-77
2021/06/26 00:48:32;;;;;;;12.55;7.45;;;;;;;13.26;78.40;101658.13;5026271;28;20057;-76
2021/06/26 00:50:57;;;;;;;8.35;6.47;;;;;;;13.19;78.33;101646.81;5049630;28;20044;-77
2021/06/26 00:53:23;;;;;;;10.10;5.93;;;;;;;13.18;77.22;101655.88;5035360;28;20064;-77
2021/06/26 00:55:52;;;;;;;7.75;5.53;;;;;;;13.13;77.00;101655.22;5031666;28;20025;-78
2021/06/26 00:58:21;;;;;;;9.00;6.45;;;;;;;13.14;78.09;101656.13;5034247;28;20018;-77
2021/06/26 01:00:46;;;;;;;12.30;6.18;;;;;;;13.11;79.12;101656.28;5035494;28;20064;-78
2021/06/26 01:03:12;;;;;;;8.95;6.07;;;;;;;13.09;77.91;101660.88;5035546;28;20048;-77
2021/06/26 01:05:37;;;;;;;11.43;7.47;;;;;;;13.02;79.13;101654.97;5016612;28;20102;-77
2021/06/26 01:08:03;;;;;;;12.73;6.57;;;;;;;12.98;78.67;101645.28;5045169;28;20050;-77
2021/06/26 01:10:28;;;;;;;8.43;6.10;;;;;;;12.99;79.28;101639.78;5030890;28;20026;-78
2021/06/26 01:12:54;;;;;;;7.90;6.10;;;;;;;12.90;79.57;101637.59;5051872;28;20021;-77
2021/06/26 01:15:19;;;;;;;8.02;6.40;;;;;;;12.90;77.61;101636.72;5052055;28;20032;-77
2021/06/26 01:17:45;;;;;;;8.13;6.43;;;;;;;12.92;77.84;101646.47;5051954;28;20025;-77
2021/06/26 01:20:12;;;;;;;9.47;6.97;;;;;;;12.85;79.50;101634.28;5049308;28;20495;-77
2021/06/26 01:22:45;;;;;;;9.52;6.57;;;;;;;12.93;78.73;101644.69;5021293;28;20128;-78
2021/06/26 01:25:13;;;;;;;11.23;6.60;;;;;;;12.93;79.14;101645.53;5047964;28;20024;-77
2021/06/26 01:27:40;;;;;;;9.30;6.13;;;;;;;12.90;79.88;101645.69;5043307;28;20076;-77
2021/06/26 01:30:06;;;;;;;8.88;5.78;;;;;;;12.90;79.74;101648.38;5015594;28;20488;-77
2021/06/26 01:32:31;;;;;;;9.80;6.55;;;;;;;12.84;78.66;101649.59;5017705;28;20034;-77
2021/06/26 01:34:57;;;;;;;8.70;6.00;;;;;;;12.79;78.63;101648.13;5032877;28;20025;-77
2021/06/26 01:37:22;;;;;;;11.30;6.22;;;;;;;12.76;78.76;101654.50;5036139;28;20048;-77
2021/06/26 01:39:47;;;;;;;10.82;6.55;;;;;;;12.69;78.94;101650.41;5035823;28;20095;-77
2021/06/26 01:42:13;;;;;;;11.55;6.93;;;;;;;12.64;78.96;101647.09;5036154;28;20036;-78
2021/06/26 01:44:38;;;;;;;11.25;6.75;;;;;;;12.60;79.74;101649.09;5035991;28;20428;-78
2021/06/26 01:47:08;;;;;;;10.13;6.57;;;;;;;12.48;79.89;101640.75;5023239;28;20103;-77
2021/06/26 01:49:35;;;;;;;8.45;6.90;;;;;;;12.54;80.55;101657.50;5056154;28;20415;-78
2021/06/26 01:52:00;;;;;;;;;;;;;;;12.53;80.51;101662.94;5038568;28;20025;-77
2021/06/26 01:54:26;;;;;;;8.63;6.67;;;;;;;12.51;81.35;101654.97;5039076;28;19920;-77
2021/06/26 01:56:51;;;;;;;10.43;6.88;;;;;;;12.47;82.03;101652.50;5054030;28;20326;-77
2021/06/26 01:59:16;;;;;;;10.80;6.50;;;;;;;12.56;82.38;101660.97;5055546;28;20017;-78
2021/06/26 02:01:42;;;;;;;9.80;6.28;;;;;;;12.60;81.51;101653.59;5055742;28;20547;-77
2021/06/26 02:04:07;;;;;;;10.38;6.75;;;;;;;12.62;81.93;101646.28;5055748;28;20025;-78
2021/06/26 02:06:32;;;;;;;9.10;6.53;;;;;;;12.74;82.30;101658.25;5055439;28;20025;-77
2021/06/26 02:08:58;;;;;;;8.32;6.32;;;;;;;12.74;82.04;101644.78;5055490;28;20021;-77
2021/06/26 02:11:23;;;;;;;9.30;5.90;;;;;;;12.73;81.40;101643.03;5055552;28;20108;-77
2021/06/26 02:13:49;;;;;;;8.70;6.78;;;;;;;12.79;81.73;101654.38;5053976;28;20527;-77
2021/06/26 02:16:15;;;;;;;8.32;6.63;;;;;;;12.84;81.67;101655.00;5055522;28;20389;-78
2021/06/26 02:18:40;;;;;;;15.30;6.85;;;;;;;12.84;82.16;101652.28;5020725;28;20037;-77
2021/06/26 02:21:06;;;;;;;11.85;7.28;;;;;;;12.87;82.67;101650.41;5048080;28;20504;-77
2021/06/26 02:23:35;;;;;;;10.73;6.50;;;;;;;12.91;82.15;101657.38;5045265;28;20107;-77
2021/06/26 02:26:00;;;;;;;9.77;6.88;;;;;;;12.91;81.55;101658.25;5035472;28;20026;-77
2021/06/26 02:28:26;;;;;;;8.90;6.78;;;;;;;12.96;82.20;101656.16;5035471;28;20519;-78
2021/06/26 02:30:51;;;;;;;10.43;7.50;;;;;;;12.96;81.71;101647.19;5041024;28;20196;-78
2021/06/26 02:33:16;;;;;;;12.00;7.28;;;;;;;13.00;81.55;101646.94;5018572;28;20022;-76
2021/06/26 02:35:41;;;;;;;11.82;6.78;;;;;;;13.13;81.22;101662.47;5029827;28;20037;-78
2021/06/26 02:38:07;;;;;;;8.27;6.30;;;;;;;13.16;81.13;101648.78;5055068;28;20024;-78
2021/06/26 02:40:32;;;;;;;10.95;7.88;;;;;;;13.28;80.95;101658.97;5055036;28;20025;-77
2021/06/26 02:42:58;;;;;;;9.80;7.07;;;;;;;13.32;80.46;101656.94;5054819;28;20032;-78
2021/06/26 02:45:23;;;;;;;10.23;6.28;;;;;;;13.36;81.13;101653.13;5038349;28;20025;-78
2021/06/26 02:47:49;;;;;;;9.18;6.93;;;;;;;13.33;81.28;101646.06;5054604;28;20044;-77
2021/06/26 02:50:14;;;;;;;9.93;7.28;;;;;;;13.43;81.17;101654.53;5024856;28;20056;-77
2021/06/26 02:52:39;;;;;;;9.95;7.18;;;;;;;13.48;80.32;101647.03;5018343;28;20432;-77
2021/06/26 02:55:05;;;;;;;9.65;7.43;;;;;;;13.50;80.22;101649.66;5018147;28;20032;-77
2021/06/26 02:57:31;;;;;;;9.95;7.25;;;;;;;13.51;79.80;101646.88;5052592;28;20036;-77
2021/06/26 02:59:56;;;;;;;8.95;6.68;;;;;;;13.47;80.93;101634.50;5054407;28;20033;-78
2021/06/26 03:02:22;;;;;;;9.88;7.28;;;;;;;13.62;80.55;101646.25;5037865;28;20119;-78
2021/06/26 03:04:47;;;;;;;9.60;7.00;;;;;;;13.60;80.92;101656.28;5054348;28;20025;-77
2021/06/26 03:07:13;;;;;;;8.73;6.95;;;;;;;13.64;81.50;101653.31;5037945;28;20451;-77
2021/06/26 03:09:38;;;;;;;10.48;7.40;;;;;;;13.68;79.70;101663.00;5029912;28;20416;-78
2021/06/26 03:12:04;;;;;;;9.52;6.78;;;;;;;13.78;79.64;101668.72;5046506;28;20109;-77
2021/06/26 03:14:30;;;;;;;8.10;6.68;;;;;;;13.80;79.54;101668.66;5054223;28;20087;-78
2021/06/26 03:16:55;;;;;;;9.55;6.40;;;;;;;13.82;79.64;101659.50;5030950;28;20441;-77
2021/06/26 03:19:20;;;;;;;9.75;7.25;;;;;;;13.85;79.52;101666.53;5018686;28;20485;-77
2021/06/26 03:21:46;;;;;;;10.13;6.93;;;;;;;13.86;79.72;101661.06;5037319;28;20472;-77
2021/06/26 03:24:11;;;;;;;9.10;6.82;;;;;;;13.90;79.12;101664.44;5050520;28;20404;-77
2021/06/26 03:26:37;;;;;;;10.70;6.63;;;;;;;13.93;80.09;101667.00;5018138;28;20060;-78
2021/06/26 03:29:03;;;;;;;9.18;6.53;;;;;;;13.96;80.40;101674.03;5034108;28;20026;-78
2021/06/26 03:31:28;;;;;;;8.85;7.10;;;;;;;14.02;80.16;101676.41;5017385;28;20127;-78
2021/06/26 03:33:54;;;;;;;9.23;6.55;;;;;;;14.07;78.60;101671.59;5035771;28;20036;-78
2021/06/26 03:36:19;;;;;;;9.40;6.53;;;;;;;14.12;79.46;101674.91;5045351;28;20046;-78
2021/06/26 03:38:45;;;;;;;9.18;6.63;;;;;;;14.18;78.41;101673.66;5017807;28;20481;-78
2021/06/26 03:41:11;;;;;;;11.25;6.75;;;;;;;14.26;78.55;101676.78;5017220;28;20033;-78
2021/06/26 03:43:36;;;;;;;9.40;6.35;;;;;;;14.29;79.88;101674.75;5017176;28;20068;-78
2021/06/26 03:46:02;;;;;;;9.52;7.30;;;;;;;14.30;80.66;101681.06;5017208;28;20021;-76
2021/06/26 03:48:27;;;;;;;11.65;7.38;;;;;;;14.30;80.50;101687.31;5033799;28;20059;-78
2021/06/26 03:50:55;;;;;;;9.13;6.90;;;;;;;14.38;80.09;101700.38;5033647;28;20378;-77
2021/06/26 03:53:20;;;;;;;12.57;7.13;;;;;;;14.42;79.69;101688.44;5049207;28;20156;-77
2021/06/26 03:55:51;;;;;;;8.88;6.95;;;;;;;14.43;80.36;101684.75;5036792;28;20459;-78
2021/06/26 03:58:24;;;;;;;8.98;6.78;;;;;;;14.48;79.42;101692.59;5052775;28;20029;-77
2021/06/26 04:00:50;;;;;;;8.90;6.97;;;;;;;14.52;79.60;101686.91;5053346;28;20032;-77
2021/06/26 04:03:16;;;;;;;10.90;7.10;;;;;;;14.59;80.42;101690.16;5036179;28;20022;-77
2021/06/26 04:05:45;;;;;;;9.30;7.28;;;;;;;14.64;80.38;101692.56;5033575;28;20021;-78
2021/06/26 04:08:11;;;;;;;9.88;6.85;;;;;;;14.65;80.24;101695.19;5016955;28;20362;-78
2021/06/26 04:10:37;;;;;;;11.30;7.28;;;;;;;14.72;81.10;101695.69;5049616;28;20502;-77
2021/06/26 04:13:03;;;;;;;11.30;7.00;;;;;;;14.67;79.95;101689.69;5033318;28;20026;-80
2021/06/26 04:15:28;;;;;;;10.57;7.55;;;;;;;14.66;79.83;101679.81;5016670;28;20026;-78
2021/06/26 04:17:53;;;;;;;11.50;7.72;;;;;;;14.66;78.55;101682.53;5033324;28;20037;-77
2021/06/26 04:20:19;;;;;;;11.55;7.70;;;;;;;14.69;80.36;101685.03;5033187;28;20105;-78
2021/06/26 04:22:45;;;;;;;12.07;7.20;;;;;;;14.60;80.62;101682.94;5034313;28;20031;-78
2021/06/26 04:25:12;;;;;;;9.77;8.10;;;;;;;14.53;81.01;101685.97;5033206;28;20064;-77
2021/06/26 04:27:38;;;;;;;12.98;7.60;;;;;;;14.46;81.66;101681.88;5048587;28;20058;-78
2021/06/26 04:30:03;;;;;;;10.48;7.25;;;;;;;14.42;81.36;101691.13;5036190;28;20087;-78
2021/06/26 04:32:29;;;;;;;14.45;8.30;;;;;;;14.38;81.25;101692.28;5036202;28;20025;-77
2021/06/26 04:34:55;;;;;;;11.30;7.72;;;;;;;14.34;81.28;101685.28;5053016;28;20048;-78
2021/06/26 04:37:20;;;;;;;17.67;7.50;;;;;;;14.37;81.58;101690.53;5036242;28;20048;-78
2021/06/26 04:39:46;;;;;;;10.13;7.47;;;;;;;14.48;80.86;101681.75;5036342;28;20028;-78
2021/06/26 04:42:11;;;;;;;11.27;8.45;;;;;;;14.73;79.86;101692.00;5036142;28;20071;-78
2021/06/26 04:44:36;;;;;;;10.45;7.95;;;;;;;14.94;79.58;101689.81;5033116;28;20364;-78
2021/06/26 04:47:02;;;;;;;12.85;8.95;;;;;;;15.24;77.57;101708.69;5024871;28;20495;-77
2021/06/26 04:49:28;;;;;;;12.77;8.63;;;;;;;15.46;75.00;101699.22;5052815;28;20127;-77
2021/06/26 04:51:53;;;;;;;14.95;8.95;;;;;;;15.69;74.14;101703.19;5053407;28;20484;-77
2021/06/26 04:54:18;;;;;;;14.07;9.02;;;;;;;15.91;72.71;101706.22;5021048;28;20393;-77
2021/06/26 04:56:44;;;;;;;14.02;9.73;;;;;;;16.11;71.51;101699.50;5032604;28;20108;-78
2021/06/26 04:59:09;;;;;;;13.32;9.45;;;;;;;16.24;70.71;101704.97;5039392;28;20031;-77
2021/06/26 05:01:34;;;;;;;11.95;9.68;;;;;;;16.36;68.72;101712.28;5032505;28;20022;-78
2021/06/26 05:04:00;;;;;;;11.63;9.45;;;;;;;16.53;70.29;101719.28;5032196;28;20087;-78
2021/06/26 05:06:26;;;;;;;13.23;9.18;;;;;;;16.64;68.21;101707.69;5032183;28;20420;-77
2021/06/26 05:08:51;;;;;;;13.98;9.52;;;;;;;16.82;67.95;101708.28;5032582;28;20029;-78
2021/06/26 05:11:16;;;;;;;13.63;9.95;;;;;;;16.93;66.92;101712.97;5015936;28;20025;-78
2021/06/26 05:13:42;;;;;;;13.18;9.70;;;;;;;17.03;66.14;101709.50;5016120;28;20025;-78
2021/06/26 05:16:07;;;;;;;11.77;9.10;;;;;;;17.15;65.63;101706.88;5015366;28;20056;-78
2021/06/26 05:18:32;;;;;;;13.13;9.07;;;;;;;17.33;65.58;101711.00;5032306;28;20021;-75
2021/06/26 05:20:58;;;;;;;14.95;9.80;;;;;;;17.41;64.99;101708.63;5032250;28;20025;-77
2021/06/26 05:23:23;;;;;;;14.07;9.52;;;;;;;17.39;64.80;101705.13;5032221;28;20091;-76
2021/06/26 05:25:48;;;;;;;15.02;8.68;;;;;;;17.55;63.82;101710.34;5032356;28;20508;-76
2021/06/26 05:28:14;;;;;;;16.73;9.43;;;;;;;17.69;64.66;101711.19;5041869;28;20532;-76
2021/06/26 05:30:40;;;;;;;12.02;9.18;;;;;;;17.76;64.39;101701.59;5045449;28;20025;-76
2021/06/26 05:33:06;;;;;;;11.88;9.00;;;;;;;18.01;64.09;101697.94;5035492;28;20468;-76
2021/06/26 05:35:31;;;;;;;12.05;7.70;;;;;;;18.23;65.16;101708.94;5034799;28;20060;-76
2021/06/26 05:37:57;;;;;;;12.00;9.18;;;;;;;18.43;61.74;101717.47;5035258;28;20035;-76
2021/06/26 05:40:22;;;;;;;12.23;8.40;;;;;;;18.59;63.08;101707.13;5047352;28;20534;-75
2021/06/26 05:42:48;;;;;;;12.57;9.38;;;;;;;19.01;61.24;101714.84;5051930;28;20028;-76
2021/06/26 05:45:13;;;;;;;13.65;9.13;;;;;;;19.29;60.46;101722.53;5018342;28;20017;-76
2021/06/26 05:47:38;;;;;;;12.23;8.68;;;;;;;19.61;60.05;101726.38;5023203;28;20028;-76
2021/06/26 05:50:04;;;;;;;11.45;9.00;;;;;;;19.87;58.12;101735.19;5037668;28;20031;-76
2021/06/26 05:52:30;;;;;;;17.42;9.93;;;;;;;20.18;54.40;101723.47;5047145;28;20381;-76
2021/06/26 05:54:55;;;;;;;12.95;8.65;;;;;;;20.51;54.96;101721.59;5019330;28;20024;-76
2021/06/26 05:57:20;;;;;;;10.65;7.90;;;;;;;20.72;54.77;101727.13;5016874;28;20468;-76
2021/06/26 05:59:46;;;;;;;15.07;9.70;;;;;;;20.95;54.57;101735.19;5031633;28;20021;-76
2021/06/26 06:02:14;;;;;;;10.27;9.02;;;;;;;21.02;53.46;101723.59;5031567;28;20033;-76
2021/06/26 06:04:43;;;;;;;11.15;8.75;;;;;;;20.81;52.93;101722.72;5050633;28;20029;-76
2021/06/26 06:07:11;;;;;;;12.55;8.75;;;;;;;20.81;53.72;101728.19;5030488;28;20032;-76
2021/06/26 06:09:37;;;;;;;13.40;8.63;;;;;;;20.85;52.72;101723.34;5034602;28;20027;-76
2021/06/26 06:12:03;;;;;;;14.13;8.55;;;;;;;20.85;52.26;101724.22;5040639;28;20021;-76
2021/06/26 06:14:29;;;;;;;12.98;8.60;;;;;;;21.04;51.53;101726.19;5031551;28;20036;-77
2021/06/26 06:16:54;;;;;;;10.13;8.23;;;;;;;21.12;51.59;101715.47;5031479;28;20109;-76
2021/06/26 06:19:19;;;;;;;13.40;8.57;;;;;;;21.49;49.96;101728.66;5031877;28;20384;-77
2021/06/26 06:21:45;;;;;;;11.02;8.43;;;;;;;22.09;48.54;101725.94;5017227;28;20075;-77
2021/06/26 06:24:10;;;;;;;14.25;8.82;;;;;;;21.98;48.28;101718.75;5018843;28;20025;-77
2021/06/26 06:26:36;;;;;;;11.43;8.13;;;;;;;22.08;46.22;101731.56;5035664;28;20034;-77
2021/06/26 06:29:01;;;;;;;11.18;8.05;;;;;;;22.51;45.04;101733.09;5036607;28;20376;-77
2021/06/26 06:31:26;;;;;;;10.38;7.63;;;;;;;22.61;44.32;101731.22;5018628;28;20027;-76
2021/06/26 06:33:52;;;;;;;9.88;6.45;;;;;;;23.13;43.35;101745.47;5035282;28;20461;-77
2021/06/26 06:36:17;;;;;;;12.55;7.72;;;;;;;24.07;36.43;101739.06;5034954;28;20041;-77
2021/06/26 06:38:42;;;;;;;13.27;7.38;;;;;;;24.17;36.87;101747.22;5035227;28;20034;-77
2021/06/26 06:41:08;;;;;;;10.97;7.03;;;;;;;24.97;35.95;101740.81;5034783;28;20025;-77
2021/06/26 06:43:33;;;;;;;9.87;6.20;;;;;;;25.22;36.30;101726.41;5036342;28;20025;-77
2021/06/26 06:45:58;;;;;;;7.63;5.90;;;;;;;25.02;35.81;101742.19;5054918;28;20431;-77
2021/06/26 06:48:24;;;;;;;11.33;6.53;;;;;;;24.76;36.20;101740.28;5054676;28;20021;-76
2021/06/26 06:50:49;;;;;;;9.90;6.10;;;;;;;25.21;36.12;101744.81;5054867;28;20036;-77
2021/06/26 06:53:14;;;;;;;10.27;6.77;;;;;;;25.15;35.49;101742.66;5054792;28;20021;-77
2021/06/26 06:55:40;;;;;;;8.17;5.97;;;;;;;25.19;35.33;101741.34;5037988;28;20070;-76
2021/06/26 06:58:05;;;;;;;12.13;6.67;;;;;;;25.05;35.95;101737.25;5054721;28;20077;-77
2021/06/26 07:00:31;;;;;;;8.17;5.37;;;;;;;25.80;36.15;101750.44;5037955;28;20043;-77
2021/06/26 07:02:56;;;;;;;11.20;6.17;;;;;;;27.41;31.45;101751.91;5046091;28;20026;-77
2021/06/26 07:05:21;;;;;;;6.53;4.60;;;;;;;29.58;28.03;101742.69;5018038;28;20056;-77
2021/06/26 07:07:47;;;;;;;7.10;5.07;;;;;;;30.76;25.98;101738.81;5034667;28;20057;-77
2021/06/26 07:10:12;;;;;;;11.30;7.33;;;;;;;28.80;28.97;101750.38;5034680;28;20104;-77
2021/06/26 07:12:37;;;;;;;7.90;5.43;;;;;;;29.02;29.03;101759.69;5041082;28;20498;-77
2021/06/26 07:15:04;;;;;;;12.30;7.67;;;;;;;27.34;31.62;101756.44;5054392;28;20029;-77
2021/06/26 07:17:29;;;;;;;11.65;8.73;;;;;;;27.45;31.01;101761.53;5037739;28;20495;-77
2021/06/26 07:19:55;;;;;;;17.07;11.77;;;;;;;26.93;32.79;101756.44;5054329;28;20052;-77
2021/06/26 07:22:20;;;;;;;12.60;9.67;;;;;;;26.29;33.56;101749.78;5054310;28;20108;-78
2021/06/26 07:24:45;;;;;;;11.63;8.37;;;;;;;26.14;34.95;101750.44;5054193;28;20031;-77
2021/06/26 07:27:11;;;;;;;12.67;8.37;;;;;;;25.57;37.39;101758.41;5054078;28;20469;-77
2021/06/26 07:29:36;;;;;;;11.00;7.50;;;;;;;25.24;38.08;101758.22;5037212;28;20024;-77
2021/06/26 07:32:02;;;;;;;11.83;7.87;;;;;;;24.70;39.22;101766.53;5024479;28;20485;-77
2021/06/26 07:34:27;;;;;;;10.20;7.27;;;;;;;24.64;39.26;101761.66;5047102;28;20028;-77
2021/06/26 07:36:53;;;;;;;13.13;8.60;;;;;;;24.42;38.69;101748.38;5053858;28;20041;-78
2021/06/26 07:39:18;;;;;;;14.67;8.47;;;;;;;24.86;37.65;101726.47;5054101;28;20472;-77
2021/06/26 07:41:43;;;;;;;12.83;8.53;;;;;;;25.72;36.64;101744.91;5053067;28;20495;-77
2021/06/26 07:44:09;;;;;;;13.03;9.10;;;;;;;27.95;31.83;101750.38;5030311;28;20057;-77
2021/06/26 07:46:34;;;;;;;12.10;7.10;;;;;;;30.36;27.93;101741.19;5037021;28;20123;-77
2021/06/26 07:48:59;;;;;;;10.83;7.53;;;;;;;30.85;27.12;101744.28;5053627;28;20064;-78
2021/06/26 07:51:25;;;;;;;13.00;6.70;;;;;;;33.78;23.69;101745.22;5053574;28;20139;-78
2021/06/26 07:53:50;;;;;;;13.00;8.10;;;;;;;33.57;22.72;101746.31;5053312;28;20166;-78
2021/06/26 07:56:15;;;;;;;10.50;6.73;;;;;;;34.79;21.74;101738.91;5036930;28;20021;-78
2021/06/26 07:58:41;;;;;;;9.77;7.63;;;;;;;34.38;22.18;101737.44;5036005;28;20032;-77
2021/06/26 08:01:06;;;;;;;8.63;6.10;;;;;;;34.96;22.32;101734.44;5034968;28;20076;-78
2021/06/26 08:03:31;;;;;;;12.70;9.70;;;;;;;33.91;21.45;101714.50;5033447;28;20060;-78
2021/06/26 08:05:57;;;;;;;11.17;8.10;;;;;;;34.25;22.13;101726.34;5033418;28;20025;-78
2021/06/26 08:08:22;;;;;;;10.60;8.00;;;;;;;32.82;24.02;101730.75;5033104;28;20594;-78
2021/06/26 08:10:49;;;;;;;9.03;7.10;;;;;;;32.95;24.13;101729.00;5033241;28;20029;-78
2021/06/26 08:13:15;;;;;;;11.98;7.22;;;;;;;32.32;25.32;101732.13;5038997;28;20032;-77
2021/06/26 08:15:42;;;;;;;13.37;10.07;;;;;;;30.48;26.91;101738.75;5053274;28;20017;-77
2021/06/26 08:18:09;;;;;;;13.57;10.57;;;;;;;30.54;25.99;101734.31;5054432;28;20029;-78
2021/06/26 08:20:34;;;;;;;12.18;7.22;;;;;;;30.54;27.55;101737.09;5036596;28;20025;-78
2021/06/26 08:23:00;;;;;;;12.37;9.20;;;;;;;29.94;29.15;101731.72;5054323;28;20413;-78
2021/06/26 08:25:27;;;;;;;13.47;10.47;;;;;;;28.85;29.15;101736.00;5029414;28;20477;-77
2021/06/26 08:27:52;;;;;;;13.20;9.40;;;;;;;30.08;27.83;101726.31;5033049;28;20370;-78
2021/06/26 08:30:18;;;;;;;13.33;8.13;;;;;;;31.45;26.65;101718.69;5019403;28;20531;-76
2021/06/26 08:32:44;;;;;;;13.88;8.32;;;;;;;33.45;23.22;101723.84;5033113;28;20021;-77
2021/06/26 08:35:10;;;;;;;10.40;7.87;;;;;;;33.57;23.35;101726.81;5034050;28;20025;-78
2021/06/26 08:37:36;;;;;;;10.38;7.95;;;;;;;32.96;24.13;101725.19;5032886;28;20385;-77
2021/06/26 08:40:02;;;;;;;13.32;7.97;;;;;;;33.06;23.66;101729.25;5016310;28;20030;-78
2021/06/26 08:42:27;;;;;;;13.02;10.98;;;;;;;32.10;23.84;101726.72;5016084;28;20120;-77
2021/06/26 08:44:59;;;;;;;12.57;9.10;;;;;;;31.92;25.57;101730.03;5016019;28;20444;-78
2021/06/26 08:47:25;;;;;;;14.65;8.13;;;;;;;30.98;26.73;101723.06;5038692;28;20017;-77
2021/06/26 08:49:51;;;;;;;13.43;8.25;;;;;;;30.28;27.99;101721.91;5052690;28;20401;-77
2021/06/26 08:52:17;;;;;;;12.88;8.18;;;;;;;30.05;28.71;101727.56;5035892;28;20024;-77
2021/06/26 08:54:42;;;;;;;12.17;8.27;;;;;;;29.80;29.88;101729.84;5052490;28;20039;-78
2021/06/26 08:57:07;;;;;;;13.63;9.43;;;;;;;29.47;29.99;101730.19;5028865;28;20030;-77
2021/06/26 08:59:33;;;;;;;13.20;9.03;;;;;;;28.93;30.49;101722.94;5033546;28;20029;-77
2021/06/26 09:01:58;;;;;;;18.70;9.67;;;;;;;28.42;30.93;101724.53;5032428;28;20030;-77
2021/06/26 09:04:23;;;;;;;15.60;10.07;;;;;;;28.36;31.00;101730.78;5015994;28;20029;-77
2021/06/26 09:06:49;;;;;;;20.60;9.87;;;;;;;27.79;33.88;101737.47;5032428;28;20103;-77
2021/06/26 09:09:15;;;;;;;13.67;9.50;;;;;;;27.54;34.49;101731.19;5040653;28;20032;-78
2021/06/26 09:11:40;;;;;;;12.60;9.33;;;;;;;27.51;33.09;101721.34;5052410;28;20523;-77
2021/06/26 09:14:16;;;;;;;13.87;9.90;;;;;;;27.55;32.82;101721.84;5052259;28;20431;-77
2021/06/26 09:16:52;;;;;;;16.03;10.17;;;;;;;27.48;34.16;101733.63;5051973;28;20025;-76
2021/06/26 09:19:18;;;;;;;12.65;9.95;;;;;;;27.85;33.68;101725.72;5070881;28;20033;-77
2021/06/26 09:21:45;;;;;;;13.83;9.40;;;;;;;28.11;32.85;101723.53;5055203;28;20024;-77
2021/06/26 09:24:11;;;;;;;13.55;9.88;;;;;;;27.59;33.13;101734.25;5055659;28;20111;-77
2021/06/26 09:26:55;;;;;;;14.05;9.90;;;;;;;28.45;32.75;101730.56;5071983;28;20380;-78
2021/06/26 09:29:21;;;;;;;12.48;9.27;;;;;;;29.03;30.96;101736.50;5060600;28;20033;-75
2021/06/26 09:31:55;;;;;;;16.20;9.33;;;;;;;29.12;31.35;101740.94;5031714;28;20023;-77
2021/06/26 09:34:22;;;;;;;13.50;8.38;;;;;;;29.76;30.21;101731.28;5023486;28;20427;-76
2021/06/26 09:36:59;;;;;;;13.20;10.68;;;;;;;30.09;29.12;101731.69;5031240;28;20067;-76
2021/06/26 09:39:35;;;;;;;11.27;9.63;;;;;;;30.38;28.45;101730.78;5019441;28;20380;-77
2021/06/26 09:42:00;;;;;;;13.30;10.00;;;;;;;29.50;29.42;101727.03;5048049;28;20112;-77
2021/06/26 09:44:26;;;;;;;12.93;9.53;;;;;;;29.26;31.58;101732.84;5030020;28;20104;-77
2021/06/26 09:46:51;;;;;;;16.33;11.30;;;;;;;28.89;31.77;101732.63;5034511;28;20040;-77
2021/06/26 09:49:29;;;;;;;14.10;8.73;;;;;;;28.86;32.61;101740.47;5051631;28;20017;-77
2021/06/26 09:52:00;;;;;;;16.52;11.60;;;;;;;28.45;31.65;101743.50;5016953;28;20029;-77
2021/06/26 09:54:27;;;;;;;11.75;9.13;;;;;;;28.18;34.19;101737.47;5033899;28;20092;-78
2021/06/26 09:56:53;;;;;;;12.00;9.18;;;;;;;28.08;34.11;101739.59;5029747;28;20036;-78
2021/06/26 09:59:31;;;;;;;12.80;9.30;;;;;;;28.06;33.13;101734.28;5039510;28;20017;-77
2021/06/26 10:01:57;;;;;;;14.55;10.38;;;;;;;27.75;36.00;101744.38;5043225;28;20036;-78
2021/06/26 10:04:23;;;;;;;13.05;9.98;;;;;;;27.38;35.60;101730.19;5037929;28;20048;-77
2021/06/26 10:06:49;;;;;;;13.27;9.70;;;;;;;27.07;35.09;101741.94;5026159;28;20384;-78
2021/06/26 10:09:14;;;;;;;12.83;10.03;;;;;;;26.76;37.76;101735.38;5070974;28;20404;-78
2021/06/26 10:11:40;;;;;;;14.17;8.87;;;;;;;26.75;38.30;101728.16;5031752;28;20025;-77
2021/06/26 10:14:07;;;;;;;13.60;9.30;;;;;;;27.39;35.37;101728.31;5035306;28;20059;-79
2021/06/26 10:16:34;;;;;;;11.00;8.95;;;;;;;27.21;36.79;101731.25;5019019;28;20031;-78
2021/06/26 10:19:02;;;;;;;9.45;7.90;;;;;;;27.67;35.38;101725.97;5035196;28;20115;-77
2021/06/26 10:21:28;;;;;;;13.27;9.30;;;;;;;27.64;34.39;101720.78;5018923;28;20029;-78
2021/06/26 10:23:55;;;;;;;13.35;8.32;;;;;;;28.29;34.69;101736.19;5047323;28;20025;-77
2021/06/26 10:26:24;;;;;;;13.23;9.38;;;;;;;29.04;31.99;101735.47;5023932;28;20078;-79
2021/06/26 10:28:53;;;;;;;13.05;8.90;;;;;;;29.52;32.55;101730.50;5040085;28;20036;-77
2021/06/26 10:31:33;;;;;;;15.82;8.88;;;;;;;31.50;28.28;101725.56;5054859;28;20382;-78
2021/06/26 10:34:19;;;;;;;10.75;8.50;;;;;;;30.89;28.92;101723.38;5038425;28;20103;-77
2021/06/26 10:36:56;;;;;;;12.75;8.80;;;;;;;30.06;29.17;101723.75;5038315;28;20056;-78
2021/06/26 10:39:26;;;;;;;11.23;8.00;;;;;;;29.63;32.36;101722.75;5055193;28;20108;-77
2021/06/26 10:42:06;;;;;;;12.48;9.10;;;;;;;28.82;32.17;101717.00;5056418;28;20025;-79
2021/06/26 10:44:46;;;;;;;12.52;9.25;;;;;;;28.58;34.21;101724.44;5038224;28;20123;-77
2021/06/26 10:47:13;;;;;;;10.63;8.35;;;;;;;28.27;34.23;101730.00;5054988;28;20025;-77
2021/06/26 10:49:38;;;;;;;13.20;8.15;;;;;;;28.79;33.82;101723.75;5038173;28;20040;-80
2021/06/26 10:52:15;;;;;;;11.17;7.17;;;;;;;28.68;34.39;101719.50;5054843;28;20021;-78
2021/06/26 10:54:57;;;;;;;15.57;9.60;;;;;;;28.67;33.08;101719.72;5038086;28;20372;-77
2021/06/26 10:57:24;;;;;;;11.48;8.00;;;;;;;28.57;32.29;101721.84;5038123;28;20029;-79
2021/06/26 11:00:01;;;;;;;10.05;8.10;;;;;;;28.71;32.64;101718.31;5043457;28;20028;-79
2021/06/26 11:02:43;;;;;;;17.70;9.02;;;;;;;30.03;30.01;101726.06;5034741;28;20033;-77
2021/06/26 11:05:10;;;;;;;11.38;7.43;;;;;;;31.85;28.19;101716.13;5034765;28;20049;-79
2021/06/26 11:07:36;;;;;;;10.32;7.47;;;;;;;30.93;29.32;101719.16;5034614;28;20029;-78
2021/06/26 11:10:09;;;;;;;11.18;7.55;;;;;;;30.20;31.49;101719.22;5018015;28;20037;-80
2021/06/26 11:12:40;;;;;;;13.40;10.55;;;;;;;30.59;28.57;101712.44;5034373;28;20029;-79
2021/06/26 11:15:05;;;;;;;10.93;8.57;;;;;;;30.40;29.57;101720.34;5018168;28;20029;-78